Aérodrome :
LOGIN :

S'inscrire | Disclaimer

   EN    FR    IT 

 










Légende :    VFR   VFR Marginal   IFR   IFR Intensif   IFR Très Intensif
Visi : 
Plafond : 
>= 8 km
>= 3000ft
5 à 8 km
1000 à 3000 ft
1500m à 5 km
500 à 1000 ft
800 à 1500m
200 à 500 ft
< 800m
< 200 ft
Symboles :   Orages  Brouillard  Fortes neiges  Fortes précipitations  Vent > 20 kt
SIGMETs :   Divers  Orages  Givrage  Turbulence  Onde Orograph.  Cendres Volcan.






- Altitude de l'aérodrome : 844 ft
- Code IATA : OSR


LKMT - Ostrava-Mosnov

DERNIER METAR :
  • 031900Z VRB01KT 9999 FEW048 17/16 Q1017 NOSIG

METARs EXPIRÉS :
  • 031830Z 17003KT 100V200 9999 SCT048 18/16 Q1017 NOSIG
  • 031800Z 18003KT 9999 SCT048 18/16 Q1016 NOSIG
  • 031730Z 18004KT CAVOK 18/17 Q1016 NOSIG
  • 031700Z 21003KT 190V270 9999 SCT040 19/17 Q1016 NOSIG
  • 031630Z VRB02KT 9999 FEW036 19/16 Q1016 NOSIG

TAF TAF LKMT
Valide du 03 à 18h jusqu'au 05 à 00h UTC


031700Z 0318/0500 22006KT CAVOK
BECMG 0319/0321 VRB02KT
BECMG 0400/0402 2500 BR NSC
TEMPO 0402/0405 1400 BR NSC
BECMG 0405/0407 CAVOK
BECMG 0411/0413 22005KT



MET'MAP, la Météo Aéronautique d'un coup d'oeil ! - Copyright ORBIFLY Décembre 2007 - Disclaimer

ORBIFLY MET'MAP TEAM :

Programmation & Développement : Alexandra Zaïnal
Sur une idée originale de : Baudouin d'Aumeries
Assistance à la programmation : Marc-Olivier Méhu
Soutien technique & logistique : Manuel Goepfert

Contact : metmap@orbifly.com




SOURCES & CREDITS :

   NOAA